Time;durP1;ratioP1;P1;durP2;ratioP2;P2;SDS_P1;SDS_P2;PMS_P1;PMS_P2;Temp;Humidity;BMP_temperature;BMP_pressure;BME280_temperature;BME280_humidity;BME280_pressure;Samples;Min_cycle;Max_cycle;Signal;HPM_P1;HPM_P2
2023/06/20 00:02:13;;;;;;;25.98;12.93;;;17.90;99.90;;;;;;5033577;28;20122;-67
2023/06/20 00:04:41;;;;;;;18.75;13.05;;;17.90;99.90;;;;;;5015033;28;20053;-68
2023/06/20 00:07:08;;;;;;;19.83;12.43;;;17.90;99.90;;;;;;5015703;28;20050;-67
2023/06/20 00:09:35;;;;;;;20.48;12.68;;;17.90;99.90;;;;;;5033371;28;20041;-67
2023/06/20 00:12:02;;;;;;;18.33;12.57;;;17.80;99.90;;;;;;5015154;28;20053;-67
2023/06/20 00:14:30;;;;;;;19.75;13.45;;;17.80;99.90;;;;;;5029812;28;20049;-66
2023/06/20 00:16:58;;;;;;;22.30;12.60;;;17.80;99.90;;;;;;5033202;28;20551;-66
2023/06/20 00:19:25;;;;;;;19.25;13.60;;;17.80;99.90;;;;;;5014952;28;20050;-67
2023/06/20 00:21:54;;;;;;;18.08;12.60;;;17.80;99.90;;;;;;5033200;28;20061;-66
2023/06/20 00:24:21;;;;;;;19.02;13.57;;;17.80;99.90;;;;;;5028321;28;20134;-67
2023/06/20 00:26:47;;;;;;;21.73;12.80;;;17.80;99.90;;;;;;5032276;28;20049;-66
2023/06/20 00:29:17;;;;;;;15.65;11.55;;;17.70;99.90;;;;;;5033004;28;20111;-66
2023/06/20 00:31:44;;;;;;;19.33;13.18;;;17.70;99.90;;;;;;5031745;28;20042;-67
2023/06/20 00:34:11;;;;;;;18.70;12.32;;;17.70;99.90;;;;;;5031020;28;20053;-66
2023/06/20 00:36:38;;;;;;;17.33;11.93;;;17.70;99.90;;;;;;5031980;28;20127;-66
2023/06/20 00:39:06;;;;;;;22.45;13.30;;;17.70;99.90;;;;;;5031574;28;20053;-67
2023/06/20 00:41:33;;;;;;;22.73;13.88;;;17.60;99.90;;;;;;5032731;28;20127;-67
2023/06/20 00:44:03;;;;;;;21.40;13.43;;;17.60;99.90;;;;;;5031776;28;20485;-66
2023/06/20 00:46:32;;;;;;;20.73;12.98;;;17.60;99.90;;;;;;5032175;28;20400;-66
2023/06/20 00:49:00;;;;;;;21.55;13.38;;;17.50;99.90;;;;;;5030890;28;20452;-67
2023/06/20 00:51:29;;;;;;;18.77;13.25;;;17.60;99.90;;;;;;5013513;28;20045;-67
2023/06/20 00:53:57;;;;;;;20.10;13.05;;;17.60;99.90;;;;;;5031293;28;20067;-67
2023/06/20 00:56:25;;;;;;;17.23;11.93;;;17.60;99.90;;;;;;5031541;28;20072;-67
2023/06/20 00:58:53;;;;;;;17.25;12.02;;;17.60;99.90;;;;;;5032313;28;20077;-65
2023/06/20 01:01:21;;;;;;;16.92;12.45;;;17.60;99.90;;;;;;5030844;28;20060;-66
2023/06/20 01:03:50;;;;;;;18.67;11.95;;;17.60;99.90;;;;;;5029330;28;20134;-67
2023/06/20 01:06:25;;;;;;;17.10;11.27;;;17.60;99.90;;;;;;5031282;28;20057;-66
2023/06/20 01:08:59;;;;;;;19.23;12.13;;;17.60;99.90;;;;;;5030803;28;20057;-66
2023/06/20 01:11:35;;;;;;;17.65;11.85;;;17.60;99.90;;;;;;5032492;28;20053;-65
2023/06/20 01:14:08;;;;;;;16.45;12.07;;;17.60;99.90;;;;;;5032295;28;20049;-66
2023/06/20 01:16:43;;;;;;;18.77;11.38;;;17.60;99.90;;;;;;5030686;28;20123;-66
2023/06/20 01:19:24;;;;;;;13.57;10.07;;;17.50;99.90;;;;;;5031126;28;20486;-66
2023/06/20 01:21:56;;;;;;;16.45;10.57;;;17.50;99.90;;;;;;5030547;28;20049;-66
2023/06/20 01:24:32;;;;;;;14.43;10.10;;;17.60;99.90;;;;;;5032062;28;20057;-65
2023/06/20 01:27:05;;;;;;;18.35;11.35;;;17.50;99.90;;;;;;5014665;28;20476;-65
2023/06/20 01:29:37;;;;;;;13.70;9.82;;;17.50;99.90;;;;;;5031696;28;20049;-65
2023/06/20 01:32:10;;;;;;;15.38;10.70;;;17.60;99.90;;;;;;5014833;28;20096;-67
2023/06/20 01:34:45;;;;;;;20.67;10.02;;;17.50;99.90;;;;;;5030814;28;20409;-66
2023/06/20 01:37:16;;;;;;;12.68;9.73;;;17.50;99.90;;;;;;4994997;28;20057;-66
2023/06/20 01:39:48;;;;;;;15.90;10.57;;;17.60;99.90;;;;;;5012498;28;20137;-66
2023/06/20 01:42:17;;;;;;;16.50;9.95;;;17.60;99.90;;;;;;5013011;28;20115;-66
2023/06/20 01:44:46;;;;;;;16.67;10.68;;;17.50;99.90;;;;;;5012381;28;20445;-67
2023/06/20 01:47:15;;;;;;;20.20;10.93;;;17.60;99.90;;;;;;5012863;28;20125;-67
2023/06/20 01:49:46;;;;;;;14.27;10.48;;;17.50;99.90;;;;;;5013696;28;20045;-67
2023/06/20 01:52:14;;;;;;;16.88;10.18;;;17.50;99.90;;;;;;5014332;28;20108;-66
2023/06/20 01:54:46;;;;;;;12.65;9.60;;;17.50;99.90;;;;;;5031923;28;20041;-66
2023/06/20 01:57:14;;;;;;;11.88;8.93;;;17.50;99.90;;;;;;5013759;28;20124;-67
2023/06/20 01:59:42;;;;;;;13.15;9.77;;;17.50;99.90;;;;;;5015139;28;20095;-67
2023/06/20 02:02:09;;;;;;;15.15;10.20;;;17.50;99.90;;;;;;5017965;28;20050;-66
2023/06/20 02:04:37;;;;;;;15.50;9.80;;;17.50;99.90;;;;;;5035075;28;20574;-66
2023/06/20 02:07:06;;;;;;;15.43;10.27;;;17.40;99.90;;;;;;5017833;28;20076;-67
2023/06/20 02:09:36;;;;;;;14.02;10.45;;;17.40;99.90;;;;;;5033421;28;20054;-67
2023/06/20 02:12:06;;;;;;;14.70;10.20;;;17.50;99.90;;;;;;5017393;28;20081;-66
2023/06/20 02:14:33;;;;;;;19.90;10.13;;;17.50;99.90;;;;;;5018151;28;20049;-66
2023/06/20 02:17:03;;;;;;;14.00;8.40;;;17.50;99.90;;;;;;5032080;28;20559;-67
2023/06/20 02:19:30;;;;;;;13.77;8.80;;;17.50;99.90;;;;;;5017137;28;20130;-66
2023/06/20 02:21:58;;;;;;;13.88;8.98;;;17.50;99.90;;;;;;5017562;28;20505;-65
2023/06/20 02:24:32;;;;;;;11.73;8.45;;;17.50;99.90;;;;;;5035137;28;20260;-67
2023/06/20 02:27:01;;;;;;;14.30;8.02;;;17.60;99.90;;;;;;5017188;28;20391;-66
2023/06/20 02:29:33;;;;;;;10.27;7.22;;;17.50;99.90;;;;;;5035228;28;20052;-67
2023/06/20 02:32:02;;;;;;;11.00;6.78;;;17.50;99.90;;;;;;5034583;28;20052;-67
2023/06/20 02:34:31;;;;;;;11.38;7.93;;;17.50;99.90;;;;;;5015689;28;20049;-66
2023/06/20 02:36:59;;;;;;;12.88;7.95;;;17.60;99.90;;;;;;5017480;28;20095;-66
2023/06/20 02:39:26;;;;;;;10.32;7.50;;;17.60;99.90;;;;;;5016686;28;20501;-67
2023/06/20 02:41:53;;;;;;;9.23;7.38;;;17.60;99.90;;;;;;5017152;28;20053;-67
2023/06/20 02:44:20;;;;;;;10.43;8.05;;;17.60;99.90;;;;;;5017526;28;20061;-66
2023/06/20 02:46:56;;;;;;;11.32;7.75;;;17.60;99.90;;;;;;5034350;28;20045;-66
2023/06/20 02:49:33;;;;;;;12.80;8.82;;;17.60;99.90;;;;;;5035227;28;20144;-66
2023/06/20 02:52:06;;;;;;;15.77;9.05;;;17.60;99.90;;;;;;5035588;28;20095;-66
2023/06/20 02:54:40;;;;;;;9.80;7.00;;;17.70;99.90;;;;;;5017516;28;20112;-65
2023/06/20 02:57:12;;;;;;;12.40;7.75;;;17.70;99.90;;;;;;5017892;28;20052;-65
2023/06/20 02:59:43;;;;;;;13.63;8.85;;;17.70;99.90;;;;;;5019584;28;20111;-66
2023/06/20 03:02:16;;;;;;;14.15;9.02;;;17.70;99.90;;;;;;5017915;28;20076;-67
2023/06/20 03:04:47;;;;;;;15.00;9.45;;;17.60;99.90;;;;;;5018419;28;20500;-67
2023/06/20 03:07:15;;;;;;;14.48;8.63;;;17.60;99.90;;;;;;5033957;28;20060;-68
2023/06/20 03:09:43;;;;;;;14.20;9.15;;;17.60;99.90;;;;;;5034981;28;20045;-66
2023/06/20 03:12:11;;;;;;;13.93;9.23;;;17.60;99.90;;;;;;5033541;28;20045;-67
2023/06/20 03:14:38;;;;;;;13.48;9.20;;;17.60;99.90;;;;;;5034242;28;20136;-67
2023/06/20 03:17:05;;;;;;;14.80;9.48;;;17.60;99.90;;;;;;5017048;28;20049;-66
2023/06/20 03:19:33;;;;;;;12.18;8.43;;;17.60;99.90;;;;;;5016781;28;20448;-66
2023/06/20 03:22:00;;;;;;;11.80;8.30;;;17.60;99.90;;;;;;5033684;28;20057;-67
2023/06/20 03:24:27;;;;;;;12.80;8.27;;;17.60;99.90;;;;;;5030414;28;20046;-66
2023/06/20 03:26:54;;;;;;;12.95;8.93;;;17.60;99.90;;;;;;5034718;28;20060;-66
2023/06/20 03:29:21;;;;;;;14.75;8.80;;;17.60;99.90;;;;;;5032488;28;20519;-67
2023/06/20 03:31:48;;;;;;;12.70;8.65;;;17.60;99.90;;;;;;5034205;28;20056;-66
2023/06/20 03:34:15;;;;;;;14.05;9.40;;;17.60;99.90;;;;;;5033894;28;20481;-66
2023/06/20 03:36:46;;;;;;;13.13;8.82;;;17.60;99.90;;;;;;5032981;28;20064;-66
2023/06/20 03:39:13;;;;;;;12.57;9.15;;;17.70;99.90;;;;;;5032195;28;20061;-66
2023/06/20 03:41:40;;;;;;;15.65;9.23;;;17.60;99.90;;;;;;5033577;28;20048;-66
2023/06/20 03:44:06;;;;;;;13.48;8.75;;;17.70;99.90;;;;;;5034580;28;20048;-66
2023/06/20 03:46:33;;;;;;;15.57;9.73;;;17.70;99.90;;;;;;5033543;28;20512;-66
2023/06/20 03:49:00;;;;;;;14.75;9.52;;;17.70;99.90;;;;;;5032294;28;20049;-65
2023/06/20 03:51:27;;;;;;;18.10;9.52;;;17.70;99.90;;;;;;5032842;28;20393;-66
2023/06/20 03:53:55;;;;;;;14.40;9.27;;;17.70;99.90;;;;;;5032378;28;20057;-66
2023/06/20 03:56:22;;;;;;;14.07;9.23;;;17.80;99.90;;;;;;5033156;28;20823;-66
2023/06/20 03:58:49;;;;;;;12.32;8.07;;;17.80;99.90;;;;;;5033668;28;20053;-65
2023/06/20 04:01:16;;;;;;;9.32;7.93;;;17.80;99.90;;;;;;5033590;28;20052;-67
2023/06/20 04:03:43;;;;;;;13.75;7.88;;;18.30;99.90;;;;;;5025157;28;20413;-67
2023/06/20 04:06:10;;;;;;;11.65;8.32;;;18.70;99.90;;;;;;5031445;28;20154;-66
2023/06/20 04:08:38;;;;;;;14.23;7.10;;;18.80;99.90;;;;;;5031506;28;20551;-66
2023/06/20 04:11:06;;;;;;;13.60;8.10;;;19.00;99.90;;;;;;5030006;28;20062;-66
2023/06/20 04:13:33;;;;;;;11.90;8.60;;;19.00;99.90;;;;;;5032179;28;20520;-66
2023/06/20 04:16:00;;;;;;;13.05;7.93;;;19.20;99.90;;;;;;5030116;28;20049;-66
2023/06/20 04:18:27;;;;;;;15.55;9.38;;;19.20;99.90;;;;;;5029998;28;20107;-66
2023/06/20 04:20:54;;;;;;;9.88;7.10;;;19.40;99.90;;;;;;5030130;28;20505;-67
2023/06/20 04:23:21;;;;;;;11.07;7.60;;;19.50;99.90;;;;;;5017790;28;20050;-66
2023/06/20 04:25:48;;;;;;;10.10;7.53;;;19.60;99.90;;;;;;4992947;28;20425;-67
2023/06/20 04:28:19;;;;;;;8.55;6.68;;;19.60;99.90;;;;;;4994069;28;20057;-66
2023/06/20 04:30:46;;;;;;;12.77;7.85;;;19.60;99.90;;;;;;4990997;28;20046;-68
2023/06/20 04:33:13;;;;;;;10.85;7.70;;;19.60;99.90;;;;;;4993871;28;20133;-66
2023/06/20 04:35:40;;;;;;;10.05;6.57;;;19.70;99.90;;;;;;4992938;28;20513;-67
2023/06/20 04:38:07;;;;;;;11.38;8.43;;;19.80;99.90;;;;;;5010255;28;20069;-69
2023/06/20 04:40:34;;;;;;;10.30;6.53;;;19.80;99.90;;;;;;5011029;28;20042;-67
2023/06/20 04:43:01;;;;;;;8.93;6.88;;;19.90;99.90;;;;;;5012083;28;20100;-67
2023/06/20 04:45:30;;;;;;;9.70;6.80;;;20.00;99.90;;;;;;4993361;28;20050;-66
2023/06/20 04:47:57;;;;;;;11.20;7.88;;;19.90;99.90;;;;;;4993949;28;20044;-68
2023/06/20 04:50:26;;;;;;;13.90;8.57;;;19.90;99.90;;;;;;4992200;28;20089;-67
2023/06/20 04:52:53;;;;;;;10.50;7.00;;;19.90;99.90;;;;;;5008745;28;20100;-67
2023/06/20 04:55:21;;;;;;;10.95;6.78;;;19.80;99.90;;;;;;4989974;28;20096;-67
2023/06/20 04:57:48;;;;;;;10.43;7.22;;;19.90;99.90;;;;;;5010354;28;20096;-67
2023/06/20 05:00:16;;;;;;;10.60;7.30;;;20.10;99.90;;;;;;5009515;28;20516;-65
2023/06/20 05:02:47;;;;;;;12.63;7.63;;;20.00;99.90;;;;;;5009563;28;20447;-67
2023/06/20 05:05:14;;;;;;;16.98;8.88;;;20.30;99.90;;;;;;5010304;28;20100;-67
2023/06/20 05:07:42;;;;;;;11.63;7.93;;;20.40;99.90;;;;;;4993894;28;20502;-66
2023/06/20 05:10:10;;;;;;;12.25;8.02;;;20.10;99.90;;;;;;4996774;28;20561;-67
2023/06/20 05:12:36;;;;;;;11.25;8.25;;;19.90;99.90;;;;;;5012481;28;20046;-66
2023/06/20 05:15:04;;;;;;;11.95;6.90;;;19.80;99.90;;;;;;4995151;28;20058;-66
2023/06/20 05:17:31;;;;;;;11.73;7.38;;;19.80;99.90;;;;;;5015529;28;20096;-65
2023/06/20 05:20:06;;;;;;;10.30;7.15;;;19.80;99.90;;;;;;4995319;28;20099;-65
2023/06/20 05:22:33;;;;;;;11.68;7.68;;;19.80;99.90;;;;;;5009909;28;20042;-66
2023/06/20 05:25:00;;;;;;;11.60;8.05;;;19.90;99.90;;;;;;5012840;28;20057;-66
2023/06/20 05:27:27;;;;;;;14.40;8.05;;;19.90;99.90;;;;;;5032085;28;20053;-67
2023/06/20 05:29:54;;;;;;;11.85;7.57;;;20.00;99.90;;;;;;5019478;28;20057;-68
2023/06/20 05:32:21;;;;;;;10.65;7.78;;;20.00;99.90;;;;;;5037834;28;20084;-66
2023/06/20 05:34:48;;;;;;;9.90;6.95;;;20.10;99.90;;;;;;5025140;28;20072;-66
2023/06/20 05:37:17;;;;;;;11.60;8.00;;;20.10;99.90;;;;;;5031233;28;20045;-66
2023/06/20 05:39:43;;;;;;;13.07;8.07;;;20.10;99.90;;;;;;5010686;28;20085;-66
2023/06/20 05:42:10;;;;;;;11.50;7.72;;;20.10;99.90;;;;;;5009761;28;20049;-65
2023/06/20 05:44:37;;;;;;;8.95;7.47;;;20.20;99.90;;;;;;5026988;28;20100;-66
2023/06/20 05:47:05;;;;;;;10.80;7.68;;;20.10;99.90;;;;;;5030744;28;20053;-64
2023/06/20 05:49:32;;;;;;;10.63;7.15;;;20.10;99.90;;;;;;5030081;28;20108;-66
2023/06/20 05:51:59;;;;;;;11.48;8.23;;;20.10;99.90;;;;;;5010355;28;20128;-66
2023/06/20 05:54:27;;;;;;;14.27;7.43;;;20.10;99.90;;;;;;5010399;28;20508;-67
2023/06/20 05:56:55;;;;;;;11.07;7.22;;;20.10;99.90;;;;;;5029228;28;20057;-66
2023/06/20 05:59:22;;;;;;;11.98;7.57;;;20.10;99.90;;;;;;5013123;28;20107;-67
2023/06/20 06:01:49;;;;;;;14.52;7.82;;;20.10;99.90;;;;;;5013239;28;20042;-67
2023/06/20 06:04:16;;;;;;;13.60;8.70;;;20.00;99.90;;;;;;5029526;28;20041;-65
2023/06/20 06:06:44;;;;;;;16.33;9.10;;;20.00;99.90;;;;;;5031141;28;20382;-67
2023/06/20 06:09:11;;;;;;;11.65;8.02;;;19.90;99.90;;;;;;5030376;28;20440;-66
2023/06/20 06:11:39;;;;;;;19.35;9.32;;;20.00;99.90;;;;;;5013056;28;20057;-67
2023/06/20 06:14:06;;;;;;;17.00;10.82;;;19.90;99.90;;;;;;5012363;28;20481;-67
2023/06/20 06:16:33;;;;;;;13.68;9.35;;;19.90;99.90;;;;;;5031087;28;20053;-66
2023/06/20 06:19:00;;;;;;;14.32;9.35;;;19.90;99.90;;;;;;5028647;28;20045;-67
2023/06/20 06:21:27;;;;;;;16.70;9.95;;;19.90;99.90;;;;;;5011669;28;20051;-67
2023/06/20 06:23:54;;;;;;;13.90;9.05;;;20.00;99.90;;;;;;5029184;28;20053;-67
2023/06/20 06:26:21;;;;;;;14.85;9.88;;;19.90;99.90;;;;;;5013350;28;20042;-67
2023/06/20 06:28:50;;;;;;;15.40;10.38;;;20.00;99.90;;;;;;5029601;28;20054;-68
2023/06/20 06:31:24;;;;;;;14.60;9.45;;;20.10;99.90;;;;;;5013505;28;20489;-67
2023/06/20 06:33:51;;;;;;;13.38;9.63;;;20.10;99.90;;;;;;5031381;28;20505;-67
2023/06/20 06:36:20;;;;;;;13.95;9.18;;;20.20;99.90;;;;;;5014354;28;20045;-67
2023/06/20 06:38:49;;;;;;;13.60;9.20;;;20.30;99.90;;;;;;5030714;28;20536;-68
2023/06/20 06:41:16;;;;;;;13.18;9.85;;;20.40;99.90;;;;;;5031394;28;20175;-68
2023/06/20 06:43:43;;;;;;;12.88;9.43;;;20.60;99.90;;;;;;5031595;28;20053;-67
2023/06/20 06:46:11;;;;;;;18.10;9.60;;;20.70;99.90;;;;;;5013025;28;20061;-67
2023/06/20 06:48:38;;;;;;;17.83;9.52;;;20.80;99.90;;;;;;5017378;28;20059;-67
2023/06/20 06:51:06;;;;;;;12.68;8.90;;;20.90;99.90;;;;;;5034974;28;20068;-67
2023/06/20 06:53:33;;;;;;;15.63;10.05;;;21.00;99.90;;;;;;5016782;28;20588;-67
2023/06/20 06:56:00;;;;;;;12.63;9.27;;;21.10;99.90;;;;;;5016910;28;20497;-68
2023/06/20 06:58:27;;;;;;;13.82;8.88;;;21.20;99.90;;;;;;5016940;28;20049;-67
2023/06/20 07:00:55;;;;;;;12.77;9.05;;;21.30;99.90;;;;;;5016349;28;20053;-67
2023/06/20 07:03:24;;;;;;;13.70;9.15;;;21.40;99.90;;;;;;5034638;28;20073;-67
2023/06/20 07:05:51;;;;;;;16.30;9.82;;;21.50;99.90;;;;;;5034419;28;20501;-67
2023/06/20 07:08:18;;;;;;;11.68;9.57;;;21.40;99.90;;;;;;5033885;28;20519;-68
2023/06/20 07:10:50;;;;;;;13.18;9.50;;;21.60;99.90;;;;;;5034419;28;20115;-67
2023/06/20 07:13:17;;;;;;;14.48;9.85;;;21.70;99.90;;;;;;5016355;28;20053;-68
2023/06/20 07:15:44;;;;;;;14.82;9.05;;;21.80;99.90;;;;;;5034371;28;20095;-68
2023/06/20 07:18:11;;;;;;;17.73;10.10;;;21.90;99.90;;;;;;5034525;28;20380;-67
2023/06/20 07:20:39;;;;;;;14.73;9.20;;;22.00;99.90;;;;;;5016182;28;20053;-67
2023/06/20 07:23:06;;;;;;;17.05;9.98;;;22.10;99.90;;;;;;5034051;28;20045;-67
2023/06/20 07:25:33;;;;;;;14.88;9.23;;;22.20;99.90;;;;;;5016766;28;20087;-66
2023/06/20 07:28:00;;;;;;;14.10;9.52;;;22.30;99.90;;;;;;5013786;28;20099;-67
2023/06/20 07:30:27;;;;;;;13.73;10.02;;;22.40;99.90;;;;;;5033986;28;20087;-67
2023/06/20 07:32:53;;;;;;;12.15;8.90;;;22.40;99.90;;;;;;5034242;28;20049;-67
2023/06/20 07:35:20;;;;;;;14.63;9.48;;;22.40;99.90;;;;;;5033379;28;20037;-66
2023/06/20 07:37:49;;;;;;;13.25;9.50;;;22.40;99.90;;;;;;5034108;28;20052;-67
2023/06/20 07:40:15;;;;;;;16.73;9.02;;;22.40;99.90;;;;;;5016047;28;20045;-68
2023/06/20 07:42:42;;;;;;;11.90;8.32;;;22.40;99.90;;;;;;5015590;28;20405;-67
2023/06/20 07:45:10;;;;;;;14.23;9.15;;;22.50;99.90;;;;;;5014095;28;20053;-67
2023/06/20 07:47:37;;;;;;;14.02;9.13;;;22.60;99.90;;;;;;5034019;28;20416;-67
2023/06/20 07:50:04;;;;;;;15.95;9.07;;;22.80;99.90;;;;;;5015758;28;20453;-67
2023/06/20 07:52:32;;;;;;;11.35;8.63;;;23.00;99.90;;;;;;5015999;28;20049;-67
2023/06/20 07:55:03;;;;;;;12.07;7.97;;;23.30;99.90;;;;;;5015762;28;20049;-67
2023/06/20 07:57:30;;;;;;;14.20;9.05;;;23.60;99.90;;;;;;5032728;28;20529;-67
2023/06/20 07:59:57;;;;;;;12.52;8.38;;;23.80;99.90;;;;;;5016048;28;20045;-67
2023/06/20 08:02:23;;;;;;;13.18;8.13;;;24.00;99.90;;;;;;5015346;28;20551;-67
2023/06/20 08:04:50;;;;;;;18.88;8.98;;;24.30;99.90;;;;;;5031445;28;20053;-67
2023/06/20 08:07:17;;;;;;;12.73;8.27;;;24.30;99.90;;;;;;5033452;28;20048;-68
2023/06/20 08:09:44;;;;;;;12.65;8.70;;;24.50;99.90;;;;;;5032773;28;20053;-67
2023/06/20 08:12:13;;;;;;;12.68;8.23;;;24.70;99.90;;;;;;5033532;28;20041;-67
2023/06/20 08:14:39;;;;;;;12.43;8.45;;;24.90;99.90;;;;;;5033407;28;20046;-67
2023/06/20 08:17:06;;;;;;;12.43;7.45;;;25.00;99.90;;;;;;5032733;28;20409;-66
2023/06/20 08:19:33;;;;;;;11.57;7.35;;;25.20;99.90;;;;;;5015958;28;20049;-67
2023/06/20 08:22:00;;;;;;;13.73;7.07;;;25.30;99.90;;;;;;5031026;28;20440;-67
2023/06/20 08:24:27;;;;;;;8.25;7.10;;;25.50;99.90;;;;;;5028608;28;20057;-67
2023/06/20 08:26:54;;;;;;;11.55;7.45;;;25.80;99.90;;;;;;5032143;28;20625;-67
2023/06/20 08:29:22;;;;;;;10.50;7.90;;;26.00;99.90;;;;;;5033081;28;20045;-67
2023/06/20 08:31:49;;;;;;;8.10;7.05;;;26.00;99.90;;;;;;5032310;28;20053;-67
2023/06/20 08:34:16;;;;;;;9.77;7.60;;;26.00;99.90;;;;;;5033047;28;20110;-67
2023/06/20 08:36:44;;;;;;;9.10;7.78;;;26.00;99.90;;;;;;5031910;28;20115;-67
2023/06/20 08:39:11;;;;;;;9.80;8.15;;;26.00;99.90;;;;;;5032212;28;20053;-67
2023/06/20 08:41:38;;;;;;;10.00;7.95;;;25.90;99.90;;;;;;5032709;28;20053;-67
2023/06/20 08:44:05;;;;;;;11.98;8.27;;;26.10;99.90;;;;;;5031880;28;20053;-67
2023/06/20 08:46:34;;;;;;;9.98;8.63;;;26.20;99.90;;;;;;5031192;28;20056;-67
2023/06/20 08:49:01;;;;;;;10.18;7.53;;;26.30;99.90;;;;;;5031411;28;20556;-67
2023/06/20 08:51:29;;;;;;;13.60;7.93;;;26.50;99.90;;;;;;5031649;28;20049;-68
2023/06/20 08:53:56;;;;;;;10.13;7.28;;;26.30;99.90;;;;;;5032212;28;20049;-67
2023/06/20 08:56:24;;;;;;;11.20;7.97;;;26.00;99.90;;;;;;5032739;28;20050;-67
2023/06/20 08:58:51;;;;;;;9.40;8.00;;;26.00;99.90;;;;;;5029911;28;20083;-68
2023/06/20 09:01:18;;;;;;;9.07;7.35;;;25.90;99.90;;;;;;5032413;28;20048;-66
2023/06/20 09:03:51;;;;;;;9.00;7.72;;;26.00;99.90;;;;;;5030348;28;20485;-67
2023/06/20 09:06:32;;;;;;;11.07;7.28;;;26.40;99.90;;;;;;5030714;28;20099;-67
2023/06/20 09:08:59;;;;;;;19.45;7.68;;;26.60;99.90;;;;;;5032042;28;20053;-68
2023/06/20 09:11:26;;;;;;;8.57;7.70;;;26.80;99.90;;;;;;5032186;28;20052;-67
2023/06/20 09:13:53;;;;;;;10.32;7.13;;;26.60;99.90;;;;;;5031756;28;20057;-67
2023/06/20 09:16:20;;;;;;;9.23;7.38;;;26.70;99.90;;;;;;5031178;28;20489;-68
2023/06/20 09:18:52;;;;;;;11.35;7.78;;;26.60;99.90;;;;;;5032453;28;20539;-68
2023/06/20 09:21:19;;;;;;;10.57;7.82;;;26.80;99.90;;;;;;5031677;28;20045;-67
2023/06/20 09:23:46;;;;;;;9.32;7.63;;;27.00;99.90;;;;;;5030954;28;20049;-68
2023/06/20 09:26:14;;;;;;;13.38;8.10;;;27.10;99.90;;;;;;5032242;28;20049;-68
2023/06/20 09:28:41;;;;;;;10.45;7.53;;;27.00;99.90;;;;;;5029386;28;20045;-67
2023/06/20 09:31:08;;;;;;;9.50;7.32;;;27.10;99.90;;;;;;5032380;28;20056;-68
2023/06/20 09:33:37;;;;;;;12.80;7.60;;;27.50;99.90;;;;;;5030109;28;20053;-67
2023/06/20 09:36:17;;;;;;;10.38;6.72;;;27.40;99.90;;;;;;5031500;28;20061;-68
2023/06/20 09:38:51;;;;;;;9.68;6.90;;;27.70;99.90;;;;;;5030033;28;20505;-68
2023/06/20 09:41:18;;;;;;;12.05;6.93;;;27.60;99.90;;;;;;5029336;28;20045;-67
2023/06/20 09:43:46;;;;;;;8.90;6.45;;;28.10;99.90;;;;;;5030597;28;20053;-67
2023/06/20 09:46:13;;;;;;;7.05;5.97;;;28.50;99.50;;;;;;5030950;28;20049;-68
2023/06/20 09:48:40;;;;;;;8.10;5.97;;;29.00;98.80;;;;;;5030283;28;20143;-68
2023/06/20 09:51:08;;;;;;;10.57;6.60;;;29.80;98.20;;;;;;5031025;28;20508;-68
2023/06/20 09:53:52;;;;;;;7.68;6.22;;;30.60;96.40;;;;;;5030609;28;20052;-68
2023/06/20 09:56:21;;;;;;;11.45;6.50;;;30.90;94.30;;;;;;5031520;28;20468;-67
2023/06/20 09:58:48;;;;;;;6.90;5.88;;;30.70;94.90;;;;;;5031028;28;20431;-67
2023/06/20 10:01:20;;;;;;;8.32;5.57;;;30.70;95.10;;;;;;5030793;28;20049;-68
2023/06/20 10:03:48;;;;;;;7.70;5.07;;;30.30;94.50;;;;;;5029951;28;20137;-68
2023/06/20 10:06:15;;;;;;;7.30;5.63;;;30.70;94.90;;;;;;5031819;28;20081;-69
2023/06/20 10:08:47;;;;;;;7.38;5.55;;;31.10;94.40;;;;;;5030904;28;20045;-67
2023/06/20 10:11:14;;;;;;;8.95;4.80;;;31.40;93.30;;;;;;5031306;28;20053;-68
2023/06/20 10:13:42;;;;;;;6.38;5.40;;;31.40;92.90;;;;;;5031974;28;20443;-67
2023/06/20 10:16:09;;;;;;;6.03;5.05;;;31.70;92.70;;;;;;5031121;28;20049;-67
2023/06/20 10:18:37;;;;;;;8.88;5.47;;;31.70;92.70;;;;;;5031737;28;20401;-67
2023/06/20 10:21:06;;;;;;;19.10;5.80;;;31.70;92.30;;;;;;5031013;28;20071;-67
2023/06/20 10:23:34;;;;;;;;;;;32.10;92.30;;;;;;5034914;28;20571;-67
2023/06/20 10:26:05;;;;;;;14.63;6.03;;;31.90;91.40;;;;;;5035522;28;19921;-68
2023/06/20 10:28:32;;;;;;;11.30;6.15;;;32.00;91.50;;;;;;5016196;28;20076;-68
2023/06/20 10:31:01;;;;;;;8.18;6.10;;;32.20;91.90;;;;;;5017307;28;20154;-67
2023/06/20 10:33:28;;;;;;;8.63;6.03;;;32.30;91.50;;;;;;5017701;28;20080;-67
2023/06/20 10:35:57;;;;;;;13.70;5.78;;;32.50;91.60;;;;;;5017411;28;20053;-68
2023/06/20 10:38:24;;;;;;;7.25;5.38;;;32.80;91.60;;;;;;5034504;28;20136;-68
2023/06/20 10:43:52;;;;;;;7.10;5.10;;;33.00;91.40;;;;;;5089763;27;20979;-68
2023/06/20 10:46:22;;;;;;;6.10;4.57;;;32.70;90.80;;;;;;5089296;28;20063;-68
2023/06/20 10:48:49;;;;;;;7.60;4.55;;;32.70;91.00;;;;;;5089802;28;20098;-67
2023/06/20 10:51:16;;;;;;;5.00;3.95;;;32.60;90.60;;;;;;5087702;28;20063;-69
2023/06/20 10:53:43;;;;;;;5.93;4.90;;;33.00;90.70;;;;;;5087468;28;20079;-68
2023/06/20 10:56:22;;;;;;;6.78;3.83;;;32.60;90.20;;;;;;5085859;28;20094;-67
2023/06/20 10:58:50;;;;;;;7.82;4.68;;;32.90;89.80;;;;;;5087726;28;20051;-67
2023/06/20 11:01:18;;;;;;;6.32;5.05;;;32.80;89.50;;;;;;5088130;28;20456;-68
2023/06/20 11:03:46;;;;;;;5.22;4.25;;;32.80;89.80;;;;;;5087990;28;20260;-69
2023/06/20 11:06:15;;;;;;;5.80;4.38;;;32.90;90.10;;;;;;5086524;28;20040;-67
2023/06/20 11:08:46;;;;;;;5.70;5.10;;;33.10;89.80;;;;;;5088165;28;20079;-67
2023/06/20 11:11:14;;;;;;;6.97;4.50;;;33.20;88.00;;;;;;5087812;28;20534;-68
2023/06/20 11:13:43;;;;;;;6.65;4.03;;;33.40;87.60;;;;;;5088419;28;20511;-68
2023/06/20 11:16:19;;;;;;;6.80;4.50;;;33.70;87.80;;;;;;5089466;28;20045;-67
2023/06/20 11:18:46;;;;;;;36.22;8.43;;;33.60;86.40;;;;;;5089112;28;20473;-69
2023/06/20 11:21:15;;;;;;;7.35;4.78;;;33.40;87.90;;;;;;5087351;28;20048;-67
2023/06/20 11:23:42;;;;;;;17.20;5.80;;;33.40;86.50;;;;;;5089083;28;20044;-68
2023/06/20 11:26:09;;;;;;;46.80;7.50;;;33.60;87.10;;;;;;5087859;28;20044;-67
2023/06/20 11:28:37;;;;;;;13.43;5.15;;;33.60;86.40;;;;;;5088517;28;20056;-67
2023/06/20 11:31:10;;;;;;;53.05;10.13;;;33.80;86.90;;;;;;5086796;28;20040;-67
2023/06/20 11:33:38;;;;;;;7.28;4.55;;;33.80;86.50;;;;;;5087243;28;20080;-68
2023/06/20 11:36:06;;;;;;;7.07;4.67;;;33.90;86.80;;;;;;5090468;28;20040;-67
2023/06/20 11:38:36;;;;;;;28.30;9.68;;;34.20;86.50;;;;;;5089694;28;20055;-67
2023/06/20 11:41:04;;;;;;;5.30;4.43;;;34.20;86.00;;;;;;5090289;28;20048;-67
2023/06/20 11:43:36;;;;;;;8.95;4.53;;;33.80;85.80;;;;;;5090393;28;20048;-67
2023/06/20 11:46:03;;;;;;;7.22;4.35;;;34.00;86.00;;;;;;5090478;28;20123;-67
2023/06/20 11:48:30;;;;;;;8.60;5.45;;;33.80;86.20;;;;;;5087833;28;20056;-67
2023/06/20 11:51:00;;;;;;;15.15;5.90;;;34.10;85.70;;;;;;5088675;28;20048;-68
2023/06/20 11:53:29;;;;;;;5.65;4.28;;;34.10;85.20;;;;;;5084405;28;20045;-68
2023/06/20 11:55:58;;;;;;;16.75;5.65;;;34.10;85.40;;;;;;5073492;28;20048;-68
2023/06/20 11:58:26;;;;;;;;;;;34.40;85.70;;;;;;5073574;28;20131;-68
2023/06/20 12:01:09;;;;;;;5.30;4.38;;;34.20;85.40;;;;;;5073768;28;19974;-68
2023/06/20 12:03:37;;;;;;;4.55;4.15;;;34.40;84.50;;;;;;5073080;28;20152;-68
2023/06/20 12:06:29;;;;;;;7.45;4.05;;;34.60;85.00;;;;;;5073793;28;20377;-67
2023/06/20 12:08:58;;;;;;;7.55;4.32;;;34.20;85.30;;;;;;5073045;28;20060;-67
2023/06/20 12:11:25;;;;;;;13.32;5.28;;;34.30;84.40;;;;;;5073031;28;20080;-67
2023/06/20 12:13:53;;;;;;;13.70;5.47;;;34.10;84.50;;;;;;5075269;28;20059;-67
2023/06/20 12:16:20;;;;;;;6.28;4.15;;;34.10;84.20;;;;;;5074580;28;20052;-67
2023/06/20 12:18:47;;;;;;;5.47;4.30;;;34.00;84.10;;;;;;5076067;28;20056;-67
2023/06/20 12:21:18;;;;;;;6.32;4.70;;;33.90;84.90;;;;;;5074632;28;20051;-67
2023/06/20 12:23:46;;;;;;;4.85;4.35;;;34.50;84.10;;;;;;5074231;28;20051;-68
2023/06/20 12:26:14;;;;;;;7.28;4.30;;;34.40;83.80;;;;;;5073065;28;20488;-67
2023/06/20 12:28:41;;;;;;;7.88;4.40;;;34.30;83.70;;;;;;5074513;28;20044;-68
2023/06/20 12:31:08;;;;;;;5.38;4.57;;;34.30;83.90;;;;;;5073696;28;20131;-67
2023/06/20 12:33:35;;;;;;;6.10;4.43;;;34.10;83.90;;;;;;5070785;28;20080;-69
2023/06/20 12:36:02;;;;;;;5.05;4.25;;;34.10;84.20;;;;;;5074039;28;20113;-67
2023/06/20 12:38:30;;;;;;;4.80;4.15;;;33.90;83.70;;;;;;5072497;28;20056;-66
2023/06/20 12:40:58;;;;;;;8.15;4.45;;;34.00;83.50;;;;;;5073116;28;20549;-68
2023/06/20 12:43:24;;;;;;;4.90;4.20;;;34.30;83.00;;;;;;5073778;28;20132;-67
2023/06/20 12:45:52;;;;;;;6.03;4.32;;;34.30;82.80;;;;;;5072354;28;20488;-68
2023/06/20 12:48:19;;;;;;;4.88;3.95;;;34.50;82.80;;;;;;5072470;28;20049;-66